Aegaeo — SXYY — position and weather

sailwx.info

Track history (hours):
 
Tides and Currents Weather Stations Pressure Air Temp Water Temp Dewpoint Dewpoint Depression Visibility Wind Speed Wind Dir Waves Ship Positions

Oceanographic research ship Aegaeo (Greece)

Detailed information on ship capabilities available from University of Delaware's Ocean Information Center.

Last reported at 2017-Mar-23 17:19 UTC. Time now 2017-Mar-23 20:17 UTC.
Position N 37°56' E 023°37'.

Length 61.5 m; beam 9.6 m; draft 2.9 m.

Type: Ship (hazmat cat A). MMSI: 237529000.

Date/timePositionNaut miles runAvg speedWind from/ knotsBaromVisibWave heightAir tempDewpointWater temp
2017-Mar-23 17:19N 37°56' E 023°37'6 8.2
2017-Mar-23 16:33N 37°50' E 023°40'1111.5
2017-Mar-23 15:33N 37°40' E 023°46'  
2017-Mar-19 06:20N 39°51' E 024°21'5 6.5
2017-Mar-19 05:33N 39°55' E 024°19'0 0.5
2017-Mar-19 04:33N 39°55' E 024°19'0 0.3
2017-Mar-19 03:34N 39°55' E 024°19'0 0.3
2017-Mar-19 02:33N 39°55' E 024°19'0 0.2
2017-Mar-19 01:05N 39°55' E 024°19'0 0.4
2017-Mar-19 00:33N 39°55' E 024°19'0 0.1
2017-Mar-18 23:24N 39°55' E 024°19'0 0.2
2017-Mar-18 22:26N 39°55' E 024°19'18 9.7
2017-Mar-18 20:33N 40°02' E 024°41'1110.8
2017-Mar-18 19:31N 40°07' E 024°54'1211.0
2017-Mar-18 18:27N 40°12' E 025°09'6 6.2
2017-Mar-18 17:32N 40°14' E 025°15'166 6.9
2017-Mar-17 17:29N 37°42' E 023°49'1010.9
2017-Mar-17 16:31N 37°50' E 023°41'7 6.9
2017-Mar-17 15:33N 37°56' E 023°37'0 0.0
2017-Mar-17 14:33N 37°56' E 023°37'0 0.0
2017-Mar-17 13:33N 37°56' E 023°37'0 0.0
2017-Mar-17 12:33N 37°56' E 023°37'0 0.0
2017-Mar-17 11:33N 37°56' E 023°37'0 0.0
2017-Mar-17 10:33N 37°56' E 023°37'0 0.0
2017-Mar-17 09:33N 37°56' E 023°37'0 0.0
2017-Mar-17 08:33N 37°56' E 023°37'0 0.0
2017-Mar-17 07:33N 37°56' E 023°37'0 0.0
2017-Mar-17 06:33N 37°56' E 023°37'  
Track history (hours):
 
Tides and Currents Weather Stations Pressure Air Temp Water Temp Dewpoint Dewpoint Depression Visibility Wind Speed Wind Dir Waves Ship Positions

Oceanographic research ship Aegaeo (Greece)

Detailed information on ship capabilities available from University of Delaware's Ocean Information Center.

Last reported at 2017-Mar-23 17:19 UTC. Time now 2017-Mar-23 20:17 UTC.
Position N 37°56' E 023°37'.

Length 61.5 m; beam 9.6 m; draft 2.9 m.

Type: Ship (hazmat cat A). MMSI: 237529000.

Date/timePositionNaut miles runAvg speedWind from/ knotsBaromVisibWave heightAir tempDewpointWater temp
2017-Mar-23 17:19N 37°56' E 023°37'6 8.2
2017-Mar-23 16:33N 37°50' E 023°40'1111.5
2017-Mar-23 15:33N 37°40' E 023°46'  
2017-Mar-19 06:20N 39°51' E 024°21'5 6.5
2017-Mar-19 05:33N 39°55' E 024°19'0 0.5
2017-Mar-19 04:33N 39°55' E 024°19'0 0.3
2017-Mar-19 03:34N 39°55' E 024°19'0 0.3
2017-Mar-19 02:33N 39°55' E 024°19'0 0.2
2017-Mar-19 01:05N 39°55' E 024°19'0 0.4
2017-Mar-19 00:33N 39°55' E 024°19'0 0.1
2017-Mar-18 23:24N 39°55' E 024°19'0 0.2
2017-Mar-18 22:26N 39°55' E 024°19'18 9.7
2017-Mar-18 20:33N 40°02' E 024°41'1110.8
2017-Mar-18 19:31N 40°07' E 024°54'1211.0
2017-Mar-18 18:27N 40°12' E 025°09'6 6.2
2017-Mar-18 17:32N 40°14' E 025°15'166 6.9
2017-Mar-17 17:29N 37°42' E 023°49'1010.9
2017-Mar-17 16:31N 37°50' E 023°41'7 6.9
2017-Mar-17 15:33N 37°56' E 023°37'0 0.0
2017-Mar-17 14:33N 37°56' E 023°37'0 0.0
2017-Mar-17 13:33N 37°56' E 023°37'0 0.0
2017-Mar-17 12:33N 37°56' E 023°37'0 0.0
2017-Mar-17 11:33N 37°56' E 023°37'0 0.0
2017-Mar-17 10:33N 37°56' E 023°37'0 0.0
2017-Mar-17 09:33N 37°56' E 023°37'0 0.0
2017-Mar-17 08:33N 37°56' E 023°37'0 0.0
2017-Mar-17 07:33N 37°56' E 023°37'0 0.0
2017-Mar-17 06:33N 37°56' E 023°37'  

Dump ship's entire track history